sensor_id;sensor_type;location;lat;lon;timestamp;temperature;humidity
42617;DHT22;28250;52.320;0.360;2022-11-15T00:00:07;11.00;99.90
42617;DHT22;28250;52.320;0.360;2022-11-15T00:02:54;11.00;99.90
42617;DHT22;28250;52.320;0.360;2022-11-15T00:05:38;11.00;99.90
42617;DHT22;28250;52.320;0.360;2022-11-15T00:08:23;11.00;99.90
42617;DHT22;28250;52.320;0.360;2022-11-15T00:11:09;11.00;99.90
42617;DHT22;28250;52.320;0.360;2022-11-15T00:13:55;11.00;99.90
42617;DHT22;28250;52.320;0.360;2022-11-15T00:16:39;11.00;99.90
42617;DHT22;28250;52.320;0.360;2022-11-15T00:19:24;11.00;99.90
42617;DHT22;28250;52.320;0.360;2022-11-15T00:22:09;10.90;99.90
42617;DHT22;28250;52.320;0.360;2022-11-15T00:24:53;10.90;99.90
42617;DHT22;28250;52.320;0.360;2022-11-15T00:27:38;10.90;99.90
42617;DHT22;28250;52.320;0.360;2022-11-15T00:30:22;10.90;99.90
42617;DHT22;28250;52.320;0.360;2022-11-15T00:33:08;10.90;99.90
42617;DHT22;28250;52.320;0.360;2022-11-15T00:35:53;10.90;99.90
42617;DHT22;28250;52.320;0.360;2022-11-15T00:38:38;10.80;99.90
42617;DHT22;28250;52.320;0.360;2022-11-15T00:41:23;10.80;99.90
42617;DHT22;28250;52.320;0.360;2022-11-15T00:44:08;10.70;99.90
42617;DHT22;28250;52.320;0.360;2022-11-15T00:46:52;10.70;99.90
42617;DHT22;28250;52.320;0.360;2022-11-15T00:49:37;10.70;99.90
42617;DHT22;28250;52.320;0.360;2022-11-15T00:52:22;10.60;99.90
42617;DHT22;28250;52.320;0.360;2022-11-15T00:55:07;10.60;99.90
42617;DHT22;28250;52.320;0.360;2022-11-15T00:58:00;10.60;99.90
42617;DHT22;28250;52.320;0.360;2022-11-15T01:00:44;10.60;99.90
42617;DHT22;28250;52.320;0.360;2022-11-15T01:03:31;10.50;99.90
42617;DHT22;28250;52.320;0.360;2022-11-15T01:06:17;10.50;99.90
42617;DHT22;28250;52.320;0.360;2022-11-15T01:09:02;10.50;99.90
42617;DHT22;28250;52.320;0.360;2022-11-15T01:11:47;10.40;99.90
42617;DHT22;28250;52.320;0.360;2022-11-15T01:14:32;10.30;99.90
42617;DHT22;28250;52.320;0.360;2022-11-15T01:17:16;10.20;99.90
42617;DHT22;28250;52.320;0.360;2022-11-15T01:20:02;10.20;99.90
42617;DHT22;28250;52.320;0.360;2022-11-15T01:22:47;10.20;99.90
42617;DHT22;28250;52.320;0.360;2022-11-15T01:25:32;10.00;99.90
42617;DHT22;28250;52.320;0.360;2022-11-15T01:28:17;10.00;99.90
42617;DHT22;28250;52.320;0.360;2022-11-15T01:31:03;9.90;99.90
42617;DHT22;28250;52.320;0.360;2022-11-15T01:33:49;9.80;99.90
42617;DHT22;28250;52.320;0.360;2022-11-15T01:36:34;9.70;99.90
42617;DHT22;28250;52.320;0.360;2022-11-15T01:39:19;9.60;99.90
42617;DHT22;28250;52.320;0.360;2022-11-15T01:42:03;9.60;99.90
42617;DHT22;28250;52.320;0.360;2022-11-15T01:44:49;9.50;99.90
42617;DHT22;28250;52.320;0.360;2022-11-15T01:47:37;9.50;99.90
42617;DHT22;28250;52.320;0.360;2022-11-15T01:50:25;9.40;99.90
42617;DHT22;28250;52.320;0.360;2022-11-15T01:53:12;9.40;99.90
42617;DHT22;28250;52.320;0.360;2022-11-15T01:56:01;9.40;99.90
42617;DHT22;28250;52.320;0.360;2022-11-15T01:58:47;9.40;99.90
42617;DHT22;28250;52.320;0.360;2022-11-15T02:01:32;9.40;99.90
42617;DHT22;28250;52.320;0.360;2022-11-15T02:04:26;9.40;99.90
42617;DHT22;28250;52.320;0.360;2022-11-15T02:07:14;9.40;99.90
42617;DHT22;28250;52.320;0.360;2022-11-15T02:10:03;9.30;99.90
42617;DHT22;28250;52.320;0.360;2022-11-15T02:12:51;9.30;99.90
42617;DHT22;28250;52.320;0.360;2022-11-15T02:15:38;9.30;99.90
42617;DHT22;28250;52.320;0.360;2022-11-15T02:18:28;9.30;99.90
42617;DHT22;28250;52.320;0.360;2022-11-15T02:36:26;9.20;99.90
42617;DHT22;28250;52.320;0.360;2022-11-15T02:39:19;9.10;99.90
42617;DHT22;28250;52.320;0.360;2022-11-15T02:42:13;9.10;99.90
42617;DHT22;28250;52.320;0.360;2022-11-15T02:45:24;9.10;99.90
42617;DHT22;28250;52.320;0.360;2022-11-15T02:48:13;9.10;99.90
42617;DHT22;28250;52.320;0.360;2022-11-15T02:50:59;9.10;99.90
42617;DHT22;28250;52.320;0.360;2022-11-15T02:53:44;9.10;99.90
42617;DHT22;28250;52.320;0.360;2022-11-15T02:56:29;9.10;99.90
42617;DHT22;28250;52.320;0.360;2022-11-15T03:11:05;9.00;99.90
42617;DHT22;28250;52.320;0.360;2022-11-15T03:16:47;9.00;99.90
42617;DHT22;28250;52.320;0.360;2022-11-15T03:22:27;8.90;99.90
42617;DHT22;28250;52.320;0.360;2022-11-15T03:25:16;8.90;99.90
42617;DHT22;28250;52.320;0.360;2022-11-15T03:28:03;8.90;99.90
42617;DHT22;28250;52.320;0.360;2022-11-15T03:30:50;8.90;99.90
42617;DHT22;28250;52.320;0.360;2022-11-15T03:33:37;9.00;99.90
42617;DHT22;28250;52.320;0.360;2022-11-15T03:36:22;9.00;99.90
42617;DHT22;28250;52.320;0.360;2022-11-15T03:39:07;9.00;99.90
42617;DHT22;28250;52.320;0.360;2022-11-15T03:45:02;8.90;99.90
42617;DHT22;28250;52.320;0.360;2022-11-15T03:48:12;8.90;99.90
42617;DHT22;28250;52.320;0.360;2022-11-15T03:50:58;8.90;99.90
42617;DHT22;28250;52.320;0.360;2022-11-15T03:53:43;9.00;99.90
42617;DHT22;28250;52.320;0.360;2022-11-15T03:56:28;8.90;99.90
42617;DHT22;28250;52.320;0.360;2022-11-15T03:59:12;9.00;99.90
42617;DHT22;28250;52.320;0.360;2022-11-15T04:01:57;8.90;99.90
42617;DHT22;28250;52.320;0.360;2022-11-15T04:04:41;9.00;99.90
42617;DHT22;28250;52.320;0.360;2022-11-15T04:07:26;9.00;99.90
42617;DHT22;28250;52.320;0.360;2022-11-15T04:10:12;9.00;99.90
42617;DHT22;28250;52.320;0.360;2022-11-15T04:12:57;9.00;99.90
42617;DHT22;28250;52.320;0.360;2022-11-15T04:15:41;9.10;99.90
42617;DHT22;28250;52.320;0.360;2022-11-15T04:18:26;9.10;99.90
42617;DHT22;28250;52.320;0.360;2022-11-15T04:21:11;9.10;99.90
42617;DHT22;28250;52.320;0.360;2022-11-15T04:24:14;9.20;99.90
42617;DHT22;28250;52.320;0.360;2022-11-15T04:26:59;9.20;99.90
42617;DHT22;28250;52.320;0.360;2022-11-15T04:29:44;9.20;99.90
42617;DHT22;28250;52.320;0.360;2022-11-15T04:32:29;9.40;99.90
42617;DHT22;28250;52.320;0.360;2022-11-15T04:35:14;9.40;99.90
42617;DHT22;28250;52.320;0.360;2022-11-15T04:37:59;9.40;99.90
42617;DHT22;28250;52.320;0.360;2022-11-15T04:40:44;9.40;99.90
42617;DHT22;28250;52.320;0.360;2022-11-15T04:43:28;9.50;99.90
42617;DHT22;28250;52.320;0.360;2022-11-15T04:46:13;9.50;99.90
42617;DHT22;28250;52.320;0.360;2022-11-15T04:48:58;9.40;99.90
42617;DHT22;28250;52.320;0.360;2022-11-15T04:51:43;9.40;99.90
42617;DHT22;28250;52.320;0.360;2022-11-15T04:54:27;9.30;99.90
42617;DHT22;28250;52.320;0.360;2022-11-15T04:57:12;9.30;99.90
42617;DHT22;28250;52.320;0.360;2022-11-15T04:59:57;9.20;99.90
42617;DHT22;28250;52.320;0.360;2022-11-15T05:02:41;9.30;99.90
42617;DHT22;28250;52.320;0.360;2022-11-15T05:05:45;9.30;99.90
42617;DHT22;28250;52.320;0.360;2022-11-15T05:08:29;9.30;99.90
42617;DHT22;28250;52.320;0.360;2022-11-15T05:11:14;9.40;99.90
42617;DHT22;28250;52.320;0.360;2022-11-15T05:13:59;9.50;99.90
42617;DHT22;28250;52.320;0.360;2022-11-15T05:16:43;9.60;99.90
42617;DHT22;28250;52.320;0.360;2022-11-15T05:19:28;9.70;99.90
42617;DHT22;28250;52.320;0.360;2022-11-15T05:22:13;9.60;99.90
42617;DHT22;28250;52.320;0.360;2022-11-15T05:24:57;9.70;99.90
42617;DHT22;28250;52.320;0.360;2022-11-15T05:27:42;9.70;99.90
42617;DHT22;28250;52.320;0.360;2022-11-15T05:30:27;9.60;99.90
42617;DHT22;28250;52.320;0.360;2022-11-15T05:33:11;9.70;99.90
42617;DHT22;28250;52.320;0.360;2022-11-15T05:36:00;9.80;99.90
42617;DHT22;28250;52.320;0.360;2022-11-15T05:38:48;9.80;99.90
42617;DHT22;28250;52.320;0.360;2022-11-15T05:41:34;9.90;99.90
42617;DHT22;28250;52.320;0.360;2022-11-15T05:44:22;10.00;99.90
42617;DHT22;28250;52.320;0.360;2022-11-15T05:47:08;10.00;99.90
42617;DHT22;28250;52.320;0.360;2022-11-15T05:49:55;10.10;99.90
42617;DHT22;28250;52.320;0.360;2022-11-15T05:52:41;10.10;99.90
42617;DHT22;28250;52.320;0.360;2022-11-15T05:55:26;10.20;99.90
42617;DHT22;28250;52.320;0.360;2022-11-15T05:58:10;10.30;99.90
42617;DHT22;28250;52.320;0.360;2022-11-15T06:00:55;10.30;99.90
42617;DHT22;28250;52.320;0.360;2022-11-15T06:03:39;10.30;99.90
42617;DHT22;28250;52.320;0.360;2022-11-15T06:06:24;10.30;99.90
42617;DHT22;28250;52.320;0.360;2022-11-15T06:09:09;10.30;99.90
42617;DHT22;28250;52.320;0.360;2022-11-15T06:11:53;10.40;99.90
42617;DHT22;28250;52.320;0.360;2022-11-15T06:14:38;10.50;99.90
42617;DHT22;28250;52.320;0.360;2022-11-15T06:17:23;10.40;99.90
42617;DHT22;28250;52.320;0.360;2022-11-15T06:20:07;10.40;99.90
42617;DHT22;28250;52.320;0.360;2022-11-15T06:22:59;10.50;99.90
42617;DHT22;28250;52.320;0.360;2022-11-15T06:25:44;10.40;99.90
42617;DHT22;28250;52.320;0.360;2022-11-15T06:28:29;10.40;99.90
42617;DHT22;28250;52.320;0.360;2022-11-15T06:31:15;10.40;99.90
42617;DHT22;28250;52.320;0.360;2022-11-15T06:34:00;10.40;99.90
42617;DHT22;28250;52.320;0.360;2022-11-15T06:36:45;10.40;99.90
42617;DHT22;28250;52.320;0.360;2022-11-15T06:39:29;10.50;99.90
42617;DHT22;28250;52.320;0.360;2022-11-15T06:42:14;10.50;99.90
42617;DHT22;28250;52.320;0.360;2022-11-15T06:44:59;10.60;99.90
42617;DHT22;28250;52.320;0.360;2022-11-15T06:47:45;10.60;99.90
42617;DHT22;28250;52.320;0.360;2022-11-15T06:50:30;10.60;99.90
42617;DHT22;28250;52.320;0.360;2022-11-15T06:53:15;10.70;99.90
42617;DHT22;28250;52.320;0.360;2022-11-15T06:56:00;10.70;99.90
42617;DHT22;28250;52.320;0.360;2022-11-15T06:58:46;10.80;99.90
42617;DHT22;28250;52.320;0.360;2022-11-15T07:01:30;10.80;99.90
42617;DHT22;28250;52.320;0.360;2022-11-15T07:04:15;10.70;99.90
42617;DHT22;28250;52.320;0.360;2022-11-15T07:06:59;10.80;99.90
42617;DHT22;28250;52.320;0.360;2022-11-15T07:09:44;10.80;99.90
42617;DHT22;28250;52.320;0.360;2022-11-15T07:12:29;10.80;99.90
42617;DHT22;28250;52.320;0.360;2022-11-15T07:15:14;10.80;99.90
42617;DHT22;28250;52.320;0.360;2022-11-15T07:18:00;10.80;99.90
42617;DHT22;28250;52.320;0.360;2022-11-15T07:20:46;10.80;99.90
42617;DHT22;28250;52.320;0.360;2022-11-15T07:23:31;10.90;99.90
42617;DHT22;28250;52.320;0.360;2022-11-15T07:26:18;10.90;99.90
42617;DHT22;28250;52.320;0.360;2022-11-15T07:29:03;10.90;99.90
42617;DHT22;28250;52.320;0.360;2022-11-15T07:31:48;10.90;99.90
42617;DHT22;28250;52.320;0.360;2022-11-15T07:34:34;10.90;99.90
42617;DHT22;28250;52.320;0.360;2022-11-15T07:37:19;11.00;99.90
42617;DHT22;28250;52.320;0.360;2022-11-15T07:40:04;11.00;99.90
42617;DHT22;28250;52.320;0.360;2022-11-15T07:42:49;11.00;99.90
42617;DHT22;28250;52.320;0.360;2022-11-15T07:45:42;11.00;99.90
42617;DHT22;28250;52.320;0.360;2022-11-15T07:48:27;11.10;99.90
42617;DHT22;28250;52.320;0.360;2022-11-15T07:51:12;11.10;99.90
42617;DHT22;28250;52.320;0.360;2022-11-15T07:53:59;11.20;99.90
42617;DHT22;28250;52.320;0.360;2022-11-15T07:56:43;11.20;99.90
42617;DHT22;28250;52.320;0.360;2022-11-15T07:59:28;11.20;99.90
42617;DHT22;28250;52.320;0.360;2022-11-15T08:02:12;11.20;99.90
42617;DHT22;28250;52.320;0.360;2022-11-15T08:04:57;11.20;99.90
42617;DHT22;28250;52.320;0.360;2022-11-15T08:07:42;11.30;99.90
42617;DHT22;28250;52.320;0.360;2022-11-15T08:10:27;11.20;99.90
42617;DHT22;28250;52.320;0.360;2022-11-15T08:13:12;11.20;99.90
42617;DHT22;28250;52.320;0.360;2022-11-15T08:15:59;11.20;99.90
42617;DHT22;28250;52.320;0.360;2022-11-15T08:18:44;11.20;99.90
42617;DHT22;28250;52.320;0.360;2022-11-15T08:21:29;11.20;99.90
42617;DHT22;28250;52.320;0.360;2022-11-15T08:24:14;11.20;99.90
42617;DHT22;28250;52.320;0.360;2022-11-15T08:26:59;11.30;99.90
42617;DHT22;28250;52.320;0.360;2022-11-15T08:29:44;11.30;99.90
42617;DHT22;28250;52.320;0.360;2022-11-15T08:32:32;11.30;99.90
42617;DHT22;28250;52.320;0.360;2022-11-15T08:35:17;11.30;99.90
42617;DHT22;28250;52.320;0.360;2022-11-15T08:38:02;11.30;99.90
42617;DHT22;28250;52.320;0.360;2022-11-15T08:40:46;11.30;99.90
42617;DHT22;28250;52.320;0.360;2022-11-15T08:43:31;11.30;99.90
42617;DHT22;28250;52.320;0.360;2022-11-15T08:46:16;11.30;99.90
42617;DHT22;28250;52.320;0.360;2022-11-15T08:49:02;11.20;99.90
42617;DHT22;28250;52.320;0.360;2022-11-15T08:51:47;11.30;99.90
42617;DHT22;28250;52.320;0.360;2022-11-15T08:54:31;11.30;99.90
42617;DHT22;28250;52.320;0.360;2022-11-15T08:57:18;11.30;99.90
42617;DHT22;28250;52.320;0.360;2022-11-15T09:00:03;11.30;99.90
42617;DHT22;28250;52.320;0.360;2022-11-15T09:02:51;11.30;99.90
42617;DHT22;28250;52.320;0.360;2022-11-15T09:05:36;11.30;99.90
42617;DHT22;28250;52.320;0.360;2022-11-15T09:08:21;11.30;99.90
42617;DHT22;28250;52.320;0.360;2022-11-15T09:11:07;11.40;99.90
42617;DHT22;28250;52.320;0.360;2022-11-15T09:13:52;11.30;99.90
42617;DHT22;28250;52.320;0.360;2022-11-15T09:16:37;11.30;99.90
42617;DHT22;28250;52.320;0.360;2022-11-15T09:19:23;11.40;99.90
42617;DHT22;28250;52.320;0.360;2022-11-15T09:22:08;11.40;99.90
42617;DHT22;28250;52.320;0.360;2022-11-15T09:24:52;11.30;99.90
42617;DHT22;28250;52.320;0.360;2022-11-15T09:27:37;11.30;99.90
42617;DHT22;28250;52.320;0.360;2022-11-15T09:30:22;11.30;99.90
42617;DHT22;28250;52.320;0.360;2022-11-15T09:33:08;11.30;99.90
42617;DHT22;28250;52.320;0.360;2022-11-15T09:35:57;11.30;99.90
42617;DHT22;28250;52.320;0.360;2022-11-15T09:38:45;11.20;99.90
42617;DHT22;28250;52.320;0.360;2022-11-15T09:44:58;11.20;99.90
42617;DHT22;28250;52.320;0.360;2022-11-15T09:51:08;11.20;99.90
42617;DHT22;28250;52.320;0.360;2022-11-15T09:53:52;11.20;99.90
42617;DHT22;28250;52.320;0.360;2022-11-15T09:56:27;11.20;99.90
42617;DHT22;28250;52.320;0.360;2022-11-15T10:04:25;11.30;99.90
42617;DHT22;28250;52.320;0.360;2022-11-15T10:06:54;11.30;99.90
42617;DHT22;28250;52.320;0.360;2022-11-15T10:12:28;11.30;99.90
42617;DHT22;28250;52.320;0.360;2022-11-15T10:15:00;11.30;99.90
42617;DHT22;28250;52.320;0.360;2022-11-15T10:20:09;11.40;99.90
42617;DHT22;28250;52.320;0.360;2022-11-15T10:25:23;11.40;99.90
42617;DHT22;28250;52.320;0.360;2022-11-15T10:27:56;11.40;99.90
42617;DHT22;28250;52.320;0.360;2022-11-15T10:30:28;11.40;99.90
42617;DHT22;28250;52.320;0.360;2022-11-15T10:32:57;11.50;99.90
42617;DHT22;28250;52.320;0.360;2022-11-15T10:35:26;11.50;99.90
42617;DHT22;28250;52.320;0.360;2022-11-15T10:38:04;11.50;99.90
42617;DHT22;28250;52.320;0.360;2022-11-15T10:40:34;11.60;99.90
42617;DHT22;28250;52.320;0.360;2022-11-15T10:43:04;11.60;99.90
42617;DHT22;28250;52.320;0.360;2022-11-15T10:45:31;11.70;99.90
42617;DHT22;28250;52.320;0.360;2022-11-15T10:50:44;11.70;99.90
42617;DHT22;28250;52.320;0.360;2022-11-15T10:53:15;11.70;99.90
42617;DHT22;28250;52.320;0.360;2022-11-15T10:55:45;11.70;99.90
42617;DHT22;28250;52.320;0.360;2022-11-15T11:12:02;11.70;99.90
42617;DHT22;28250;52.320;0.360;2022-11-15T11:19:49;11.70;99.90
42617;DHT22;28250;52.320;0.360;2022-11-15T11:33:31;11.90;99.90
42617;DHT22;28250;52.320;0.360;2022-11-15T11:36:03;11.90;99.90
42617;DHT22;28250;52.320;0.360;2022-11-15T11:41:57;12.00;99.90
42617;DHT22;28250;52.320;0.360;2022-11-15T11:49:31;12.00;99.90
42617;DHT22;28250;52.320;0.360;2022-11-15T11:57:25;12.00;99.90
42617;DHT22;28250;52.320;0.360;2022-11-15T11:59:58;12.00;99.90
42617;DHT22;28250;52.320;0.360;2022-11-15T12:02:39;12.10;99.90
42617;DHT22;28250;52.320;0.360;2022-11-15T12:07:44;12.10;99.90
42617;DHT22;28250;52.320;0.360;2022-11-15T12:12:56;12.10;99.90
42617;DHT22;28250;52.320;0.360;2022-11-15T12:15:29;12.20;99.90
42617;DHT22;28250;52.320;0.360;2022-11-15T12:17:58;12.20;99.90
42617;DHT22;28250;52.320;0.360;2022-11-15T12:20:27;12.20;99.90
42617;DHT22;28250;52.320;0.360;2022-11-15T12:28:16;12.10;99.90
42617;DHT22;28250;52.320;0.360;2022-11-15T12:30:47;12.00;99.90
42617;DHT22;28250;52.320;0.360;2022-11-15T12:33:41;12.00;99.90
42617;DHT22;28250;52.320;0.360;2022-11-15T12:36:11;12.00;99.90
42617;DHT22;28250;52.320;0.360;2022-11-15T12:43:53;12.00;99.90
42617;DHT22;28250;52.320;0.360;2022-11-15T12:48:48;11.90;99.90
42617;DHT22;28250;52.320;0.360;2022-11-15T12:51:16;11.90;99.90
42617;DHT22;28250;52.320;0.360;2022-11-15T12:53:44;12.00;99.90
42617;DHT22;28250;52.320;0.360;2022-11-15T12:58:40;11.90;99.90
42617;DHT22;28250;52.320;0.360;2022-11-15T13:01:08;11.90;99.90
42617;DHT22;28250;52.320;0.360;2022-11-15T13:03:34;11.90;99.90
42617;DHT22;28250;52.320;0.360;2022-11-15T13:06:02;11.90;99.90
42617;DHT22;28250;52.320;0.360;2022-11-15T13:22:50;11.90;99.90
42617;DHT22;28250;52.320;0.360;2022-11-15T13:27:51;11.90;99.90
42617;DHT22;28250;52.320;0.360;2022-11-15T13:30:21;11.90;99.90
42617;DHT22;28250;52.320;0.360;2022-11-15T13:32:49;11.90;99.90
42617;DHT22;28250;52.320;0.360;2022-11-15T13:38:03;11.90;99.90
42617;DHT22;28250;52.320;0.360;2022-11-15T13:40:36;12.00;99.90
42617;DHT22;28250;52.320;0.360;2022-11-15T13:48:38;12.00;99.90
42617;DHT22;28250;52.320;0.360;2022-11-15T13:51:08;12.00;99.90
42617;DHT22;28250;52.320;0.360;2022-11-15T13:53:44;12.10;99.90
42617;DHT22;28250;52.320;0.360;2022-11-15T13:56:13;12.00;99.90
42617;DHT22;28250;52.320;0.360;2022-11-15T13:58:40;12.10;99.90
42617;DHT22;28250;52.320;0.360;2022-11-15T14:01:06;12.10;99.90
42617;DHT22;28250;52.320;0.360;2022-11-15T14:03:40;12.10;99.90
42617;DHT22;28250;52.320;0.360;2022-11-15T14:06:13;12.10;99.90
42617;DHT22;28250;52.320;0.360;2022-11-15T14:08:57;12.20;99.90
42617;DHT22;28250;52.320;0.360;2022-11-15T14:11:26;12.20;99.90
42617;DHT22;28250;52.320;0.360;2022-11-15T14:16:42;12.30;99.90
42617;DHT22;28250;52.320;0.360;2022-11-15T14:19:13;12.30;99.90
42617;DHT22;28250;52.320;0.360;2022-11-15T14:24:47;12.40;99.90
42617;DHT22;28250;52.320;0.360;2022-11-15T14:27:31;12.40;99.90
42617;DHT22;28250;52.320;0.360;2022-11-15T14:29:57;12.50;99.90
42617;DHT22;28250;52.320;0.360;2022-11-15T14:32:25;12.50;99.90
42617;DHT22;28250;52.320;0.360;2022-11-15T14:34:54;12.60;99.90
42617;DHT22;28250;52.320;0.360;2022-11-15T14:37:25;12.80;99.90
42617;DHT22;28250;52.320;0.360;2022-11-15T14:39:52;12.90;99.90
42617;DHT22;28250;52.320;0.360;2022-11-15T14:42:19;12.90;99.90
42617;DHT22;28250;52.320;0.360;2022-11-15T14:44:46;12.80;99.90
42617;DHT22;28250;52.320;0.360;2022-11-15T14:47:12;12.90;99.90
42617;DHT22;28250;52.320;0.360;2022-11-15T14:49:38;12.90;99.90
42617;DHT22;28250;52.320;0.360;2022-11-15T14:52:07;12.90;99.90
42617;DHT22;28250;52.320;0.360;2022-11-15T14:54:51;13.00;99.90
42617;DHT22;28250;52.320;0.360;2022-11-15T14:57:17;13.00;99.90
42617;DHT22;28250;52.320;0.360;2022-11-15T14:59:43;13.10;99.90
42617;DHT22;28250;52.320;0.360;2022-11-15T15:02:18;13.10;99.90
42617;DHT22;28250;52.320;0.360;2022-11-15T15:04:46;13.10;99.90
42617;DHT22;28250;52.320;0.360;2022-11-15T15:07:12;13.10;99.90
42617;DHT22;28250;52.320;0.360;2022-11-15T15:09:39;13.10;99.90
42617;DHT22;28250;52.320;0.360;2022-11-15T15:12:09;13.10;99.90
42617;DHT22;28250;52.320;0.360;2022-11-15T15:14:39;13.10;99.90
42617;DHT22;28250;52.320;0.360;2022-11-15T15:17:05;13.10;99.90
42617;DHT22;28250;52.320;0.360;2022-11-15T15:19:31;13.20;99.90
42617;DHT22;28250;52.320;0.360;2022-11-15T15:22:00;13.10;99.90
42617;DHT22;28250;52.320;0.360;2022-11-15T15:24:27;13.10;99.90
42617;DHT22;28250;52.320;0.360;2022-11-15T15:26:53;13.00;99.90
42617;DHT22;28250;52.320;0.360;2022-11-15T15:29:19;12.90;99.90
42617;DHT22;28250;52.320;0.360;2022-11-15T15:31:45;12.90;99.90
42617;DHT22;28250;52.320;0.360;2022-11-15T15:34:12;12.80;99.90
42617;DHT22;28250;52.320;0.360;2022-11-15T15:36:38;12.70;99.90
42617;DHT22;28250;52.320;0.360;2022-11-15T15:39:04;12.60;99.90
42617;DHT22;28250;52.320;0.360;2022-11-15T15:41:30;12.70;99.90
42617;DHT22;28250;52.320;0.360;2022-11-15T15:43:59;12.60;99.90
42617;DHT22;28250;52.320;0.360;2022-11-15T15:46:26;12.60;99.90
42617;DHT22;28250;52.320;0.360;2022-11-15T15:48:52;12.60;99.90
42617;DHT22;28250;52.320;0.360;2022-11-15T15:51:18;12.60;99.90
42617;DHT22;28250;52.320;0.360;2022-11-15T15:53:44;12.60;99.90
42617;DHT22;28250;52.320;0.360;2022-11-15T15:56:10;12.60;99.90
42617;DHT22;28250;52.320;0.360;2022-11-15T15:58:36;12.60;99.90
42617;DHT22;28250;52.320;0.360;2022-11-15T16:01:02;12.50;99.90
42617;DHT22;28250;52.320;0.360;2022-11-15T16:03:31;12.50;99.90
42617;DHT22;28250;52.320;0.360;2022-11-15T16:05:58;12.40;99.90
42617;DHT22;28250;52.320;0.360;2022-11-15T16:08:24;12.40;99.90
42617;DHT22;28250;52.320;0.360;2022-11-15T16:10:52;12.40;99.90
42617;DHT22;28250;52.320;0.360;2022-11-15T16:13:21;12.30;99.90
42617;DHT22;28250;52.320;0.360;2022-11-15T16:15:49;12.30;99.90
42617;DHT22;28250;52.320;0.360;2022-11-15T16:18:17;12.30;99.90
42617;DHT22;28250;52.320;0.360;2022-11-15T16:20:45;12.30;99.90
42617;DHT22;28250;52.320;0.360;2022-11-15T16:23:17;12.20;99.90
42617;DHT22;28250;52.320;0.360;2022-11-15T16:28:21;12.10;99.90
42617;DHT22;28250;52.320;0.360;2022-11-15T16:30:49;12.10;99.90
42617;DHT22;28250;52.320;0.360;2022-11-15T16:33:15;12.00;99.90
42617;DHT22;28250;52.320;0.360;2022-11-15T16:35:43;11.90;99.90
42617;DHT22;28250;52.320;0.360;2022-11-15T16:38:13;11.90;99.90
42617;DHT22;28250;52.320;0.360;2022-11-15T16:40:40;11.80;99.90
42617;DHT22;28250;52.320;0.360;2022-11-15T16:43:06;11.80;99.90
42617;DHT22;28250;52.320;0.360;2022-11-15T16:45:33;11.80;99.90
42617;DHT22;28250;52.320;0.360;2022-11-15T16:48:00;11.80;99.90
42617;DHT22;28250;52.320;0.360;2022-11-15T16:50:28;11.80;99.90
42617;DHT22;28250;52.320;0.360;2022-11-15T16:52:56;11.80;99.90
42617;DHT22;28250;52.320;0.360;2022-11-15T16:55:23;11.70;99.90
42617;DHT22;28250;52.320;0.360;2022-11-15T16:57:51;11.70;99.90
42617;DHT22;28250;52.320;0.360;2022-11-15T17:00:18;11.60;99.90
42617;DHT22;28250;52.320;0.360;2022-11-15T17:02:45;11.50;99.90
42617;DHT22;28250;52.320;0.360;2022-11-15T17:05:12;11.50;99.90
42617;DHT22;28250;52.320;0.360;2022-11-15T17:07:39;11.50;99.90
42617;DHT22;28250;52.320;0.360;2022-11-15T17:10:06;11.50;99.90
42617;DHT22;28250;52.320;0.360;2022-11-15T17:12:34;11.50;99.90
42617;DHT22;28250;52.320;0.360;2022-11-15T17:15:01;11.50;99.90
42617;DHT22;28250;52.320;0.360;2022-11-15T17:17:29;11.40;99.90
42617;DHT22;28250;52.320;0.360;2022-11-15T17:19:56;11.30;99.90
42617;DHT22;28250;52.320;0.360;2022-11-15T17:22:22;11.20;99.90
42617;DHT22;28250;52.320;0.360;2022-11-15T17:24:49;11.10;99.90
42617;DHT22;28250;52.320;0.360;2022-11-15T17:27:16;11.10;99.90
42617;DHT22;28250;52.320;0.360;2022-11-15T17:29:42;11.00;99.90
42617;DHT22;28250;52.320;0.360;2022-11-15T17:32:08;11.00;99.90
42617;DHT22;28250;52.320;0.360;2022-11-15T17:34:34;11.00;99.90
42617;DHT22;28250;52.320;0.360;2022-11-15T17:37:00;10.90;99.90
42617;DHT22;28250;52.320;0.360;2022-11-15T17:39:27;10.90;99.90
42617;DHT22;28250;52.320;0.360;2022-11-15T17:41:53;10.90;99.90
42617;DHT22;28250;52.320;0.360;2022-11-15T17:44:19;10.90;99.90
42617;DHT22;28250;52.320;0.360;2022-11-15T17:46:46;10.80;99.90
42617;DHT22;28250;52.320;0.360;2022-11-15T17:49:12;10.80;99.90
42617;DHT22;28250;52.320;0.360;2022-11-15T17:51:56;10.90;99.90
42617;DHT22;28250;52.320;0.360;2022-11-15T17:54:22;10.90;99.90
42617;DHT22;28250;52.320;0.360;2022-11-15T17:56:49;10.90;99.90
42617;DHT22;28250;52.320;0.360;2022-11-15T17:59:15;10.90;99.90
42617;DHT22;28250;52.320;0.360;2022-11-15T18:01:41;10.80;99.90
42617;DHT22;28250;52.320;0.360;2022-11-15T18:04:07;10.70;99.90
42617;DHT22;28250;52.320;0.360;2022-11-15T18:06:35;10.70;99.90
42617;DHT22;28250;52.320;0.360;2022-11-15T18:09:02;10.60;99.90
42617;DHT22;28250;52.320;0.360;2022-11-15T18:11:30;10.60;99.90
42617;DHT22;28250;52.320;0.360;2022-11-15T18:13:58;10.50;99.90
42617;DHT22;28250;52.320;0.360;2022-11-15T18:16:28;10.50;99.90
42617;DHT22;28250;52.320;0.360;2022-11-15T18:18:55;10.50;99.90
42617;DHT22;28250;52.320;0.360;2022-11-15T18:21:23;10.40;99.90
42617;DHT22;28250;52.320;0.360;2022-11-15T18:23:52;10.30;99.90
42617;DHT22;28250;52.320;0.360;2022-11-15T18:26:20;10.30;99.90
42617;DHT22;28250;52.320;0.360;2022-11-15T18:28:47;10.20;99.90
42617;DHT22;28250;52.320;0.360;2022-11-15T18:33:43;10.10;99.90
42617;DHT22;28250;52.320;0.360;2022-11-15T18:36:11;10.10;99.90
42617;DHT22;28250;52.320;0.360;2022-11-15T18:38:38;10.10;99.90
42617;DHT22;28250;52.320;0.360;2022-11-15T18:43:38;10.10;99.90
42617;DHT22;28250;52.320;0.360;2022-11-15T18:48:34;10.10;99.90
42617;DHT22;28250;52.320;0.360;2022-11-15T18:51:03;10.10;99.90
42617;DHT22;28250;52.320;0.360;2022-11-15T18:53:29;10.20;99.90
42617;DHT22;28250;52.320;0.360;2022-11-15T18:56:05;10.30;99.90
42617;DHT22;28250;52.320;0.360;2022-11-15T18:58:36;10.20;99.90
42617;DHT22;28250;52.320;0.360;2022-11-15T19:01:04;10.30;99.90
42617;DHT22;28250;52.320;0.360;2022-11-15T19:03:32;10.30;99.90
42617;DHT22;28250;52.320;0.360;2022-11-15T19:06:01;10.30;99.90
42617;DHT22;28250;52.320;0.360;2022-11-15T19:08:28;10.40;99.90
42617;DHT22;28250;52.320;0.360;2022-11-15T19:10:54;10.30;99.90
42617;DHT22;28250;52.320;0.360;2022-11-15T19:13:20;10.30;99.90
42617;DHT22;28250;52.320;0.360;2022-11-15T19:15:46;10.20;99.90
42617;DHT22;28250;52.320;0.360;2022-11-15T19:18:13;10.20;99.90
42617;DHT22;28250;52.320;0.360;2022-11-15T19:20:39;10.20;99.90
42617;DHT22;28250;52.320;0.360;2022-11-15T19:23:05;10.20;99.90
42617;DHT22;28250;52.320;0.360;2022-11-15T19:25:32;10.20;99.90